Terminal Aerodrome Forecast
Issued by NWS

Home | Current Version | Previous Version | Text Only | Print | Product List | Glossary On
Versions: 1 2 3 4 5 6 7 8 9 10 11 12 13 14 15 16 17
000
FTUS46 KEKA 311727
TAFUKI
TAF
KUKI 311727Z 3118/0118 01005KT P6SM SCT250
     FM312200 32010KT P6SM SKC
     FM010200 36007KT P6SM SKC
     FM010500 00000KT P6SM SKC=

USA.gov is the U.S. government's official web portal to all federal, state and local government web resources and services.